sensor_id;sensor_type;location;lat;lon;timestamp;P1;durP1;ratioP1;P2;durP2;ratioP2
27003;SDS011;14546;47.590;19.022;2022-11-20T00:01:09;39.33;;;22.50;;
27003;SDS011;14546;47.590;19.022;2022-11-20T00:06:05;39.45;;;22.10;;
27003;SDS011;14546;47.590;19.022;2022-11-20T00:08:31;41.60;;;22.25;;
27003;SDS011;14546;47.590;19.022;2022-11-20T00:11:01;40.50;;;21.05;;
27003;SDS011;14546;47.590;19.022;2022-11-20T00:13:28;37.65;;;20.75;;
27003;SDS011;14546;47.590;19.022;2022-11-20T00:15:57;33.85;;;19.90;;
27003;SDS011;14546;47.590;19.022;2022-11-20T00:18:23;35.63;;;19.65;;
27003;SDS011;14546;47.590;19.022;2022-11-20T00:20:49;35.55;;;20.77;;
27003;SDS011;14546;47.590;19.022;2022-11-20T00:23:15;39.28;;;21.48;;
27003;SDS011;14546;47.590;19.022;2022-11-20T00:25:41;37.47;;;20.00;;
27003;SDS011;14546;47.590;19.022;2022-11-20T00:28:07;40.53;;;20.80;;
27003;SDS011;14546;47.590;19.022;2022-11-20T00:30:33;35.05;;;19.73;;
27003;SDS011;14546;47.590;19.022;2022-11-20T00:32:59;40.05;;;20.30;;
27003;SDS011;14546;47.590;19.022;2022-11-20T00:35:25;36.45;;;21.10;;
27003;SDS011;14546;47.590;19.022;2022-11-20T00:37:51;39.80;;;20.85;;
27003;SDS011;14546;47.590;19.022;2022-11-20T00:40:17;38.85;;;21.95;;
27003;SDS011;14546;47.590;19.022;2022-11-20T00:42:43;37.08;;;20.95;;
27003;SDS011;14546;47.590;19.022;2022-11-20T00:45:09;37.47;;;20.40;;
27003;SDS011;14546;47.590;19.022;2022-11-20T00:47:35;45.58;;;21.88;;
27003;SDS011;14546;47.590;19.022;2022-11-20T00:50:01;41.28;;;21.67;;
27003;SDS011;14546;47.590;19.022;2022-11-20T00:52:27;42.50;;;22.40;;
27003;SDS011;14546;47.590;19.022;2022-11-20T00:54:53;38.42;;;22.00;;
27003;SDS011;14546;47.590;19.022;2022-11-20T00:57:19;46.92;;;22.85;;
27003;SDS011;14546;47.590;19.022;2022-11-20T00:59:45;47.33;;;23.48;;
27003;SDS011;14546;47.590;19.022;2022-11-20T01:02:11;42.53;;;23.85;;
27003;SDS011;14546;47.590;19.022;2022-11-20T01:04:37;43.75;;;23.85;;
27003;SDS011;14546;47.590;19.022;2022-11-20T01:07:03;48.58;;;24.50;;
27003;SDS011;14546;47.590;19.022;2022-11-20T01:09:29;51.58;;;25.88;;
27003;SDS011;14546;47.590;19.022;2022-11-20T01:11:55;57.88;;;27.05;;
27003;SDS011;14546;47.590;19.022;2022-11-20T01:14:21;53.85;;;26.83;;
27003;SDS011;14546;47.590;19.022;2022-11-20T01:16:48;56.15;;;27.13;;
27003;SDS011;14546;47.590;19.022;2022-11-20T01:19:16;56.60;;;26.48;;
27003;SDS011;14546;47.590;19.022;2022-11-20T01:21:42;54.97;;;27.60;;
27003;SDS011;14546;47.590;19.022;2022-11-20T01:24:13;59.47;;;27.48;;
27003;SDS011;14546;47.590;19.022;2022-11-20T01:26:39;53.47;;;26.00;;
27003;SDS011;14546;47.590;19.022;2022-11-20T01:29:06;54.72;;;27.00;;
27003;SDS011;14546;47.590;19.022;2022-11-20T01:31:34;58.78;;;27.65;;
27003;SDS011;14546;47.590;19.022;2022-11-20T01:34:01;60.92;;;28.40;;
27003;SDS011;14546;47.590;19.022;2022-11-20T01:36:28;63.50;;;28.10;;
27003;SDS011;14546;47.590;19.022;2022-11-20T01:38:56;56.40;;;27.67;;
27003;SDS011;14546;47.590;19.022;2022-11-20T01:41:22;57.10;;;27.40;;
27003;SDS011;14546;47.590;19.022;2022-11-20T01:44:09;59.28;;;28.67;;
27003;SDS011;14546;47.590;19.022;2022-11-20T01:46:36;56.67;;;26.92;;
27003;SDS011;14546;47.590;19.022;2022-11-20T01:51:52;57.20;;;27.25;;
27003;SDS011;14546;47.590;19.022;2022-11-20T01:54:24;55.88;;;28.38;;
27003;SDS011;14546;47.590;19.022;2022-11-20T01:56:51;55.45;;;27.80;;
27003;SDS011;14546;47.590;19.022;2022-11-20T01:59:19;56.38;;;26.50;;
27003;SDS011;14546;47.590;19.022;2022-11-20T02:01:46;56.72;;;27.98;;
27003;SDS011;14546;47.590;19.022;2022-11-20T02:04:12;57.10;;;27.25;;
27003;SDS011;14546;47.590;19.022;2022-11-20T02:06:40;58.58;;;27.73;;
27003;SDS011;14546;47.590;19.022;2022-11-20T02:09:08;58.55;;;26.70;;
27003;SDS011;14546;47.590;19.022;2022-11-20T02:11:34;47.95;;;23.65;;
27003;SDS011;14546;47.590;19.022;2022-11-20T02:14:00;41.10;;;22.42;;
27003;SDS011;14546;47.590;19.022;2022-11-20T02:18:53;46.47;;;24.27;;
27003;SDS011;14546;47.590;19.022;2022-11-20T02:26:31;41.33;;;22.58;;
27003;SDS011;14546;47.590;19.022;2022-11-20T02:29:00;43.50;;;22.15;;
27003;SDS011;14546;47.590;19.022;2022-11-20T02:31:27;43.47;;;22.20;;
27003;SDS011;14546;47.590;19.022;2022-11-20T02:33:56;43.03;;;21.42;;
27003;SDS011;14546;47.590;19.022;2022-11-20T02:36:23;42.35;;;21.92;;
27003;SDS011;14546;47.590;19.022;2022-11-20T02:38:50;40.72;;;20.13;;
27003;SDS011;14546;47.590;19.022;2022-11-20T02:41:16;39.35;;;19.67;;
27003;SDS011;14546;47.590;19.022;2022-11-20T02:43:42;37.30;;;20.55;;
27003;SDS011;14546;47.590;19.022;2022-11-20T02:46:08;37.42;;;20.10;;
27003;SDS011;14546;47.590;19.022;2022-11-20T02:48:34;39.30;;;20.52;;
27003;SDS011;14546;47.590;19.022;2022-11-20T02:51:00;41.22;;;21.88;;
27003;SDS011;14546;47.590;19.022;2022-11-20T02:53:26;44.30;;;22.88;;
27003;SDS011;14546;47.590;19.022;2022-11-20T02:55:52;47.63;;;23.15;;
27003;SDS011;14546;47.590;19.022;2022-11-20T02:58:18;48.30;;;24.38;;
27003;SDS011;14546;47.590;19.022;2022-11-20T03:00:44;46.17;;;23.20;;
27003;SDS011;14546;47.590;19.022;2022-11-20T03:03:10;49.25;;;23.85;;
27003;SDS011;14546;47.590;19.022;2022-11-20T03:05:36;49.08;;;24.58;;
27003;SDS011;14546;47.590;19.022;2022-11-20T03:08:02;52.10;;;25.05;;
27003;SDS011;14546;47.590;19.022;2022-11-20T03:10:28;57.55;;;26.98;;
27003;SDS011;14546;47.590;19.022;2022-11-20T03:12:54;49.95;;;27.20;;
27003;SDS011;14546;47.590;19.022;2022-11-20T03:15:21;58.60;;;27.15;;
27003;SDS011;14546;47.590;19.022;2022-11-20T03:17:47;52.80;;;26.77;;
27003;SDS011;14546;47.590;19.022;2022-11-20T03:20:13;50.53;;;26.10;;
27003;SDS011;14546;47.590;19.022;2022-11-20T03:22:39;50.53;;;26.42;;
27003;SDS011;14546;47.590;19.022;2022-11-20T03:25:05;51.60;;;27.33;;
27003;SDS011;14546;47.590;19.022;2022-11-20T03:27:32;51.72;;;27.83;;
27003;SDS011;14546;47.590;19.022;2022-11-20T03:29:59;52.38;;;27.30;;
27003;SDS011;14546;47.590;19.022;2022-11-20T03:32:25;57.00;;;28.60;;
27003;SDS011;14546;47.590;19.022;2022-11-20T03:34:51;54.00;;;26.52;;
27003;SDS011;14546;47.590;19.022;2022-11-20T03:37:17;57.83;;;28.65;;
27003;SDS011;14546;47.590;19.022;2022-11-20T03:39:43;52.38;;;27.88;;
27003;SDS011;14546;47.590;19.022;2022-11-20T03:42:09;48.38;;;27.15;;
27003;SDS011;14546;47.590;19.022;2022-11-20T03:44:54;52.63;;;27.27;;
27003;SDS011;14546;47.590;19.022;2022-11-20T03:47:20;54.75;;;27.85;;
27003;SDS011;14546;47.590;19.022;2022-11-20T03:49:46;49.83;;;28.27;;
27003;SDS011;14546;47.590;19.022;2022-11-20T03:52:12;49.88;;;26.90;;
27003;SDS011;14546;47.590;19.022;2022-11-20T03:54:38;49.75;;;26.83;;
27003;SDS011;14546;47.590;19.022;2022-11-20T03:57:04;53.35;;;26.25;;
27003;SDS011;14546;47.590;19.022;2022-11-20T03:59:30;52.20;;;27.38;;
27003;SDS011;14546;47.590;19.022;2022-11-20T04:01:56;47.53;;;26.02;;
27003;SDS011;14546;47.590;19.022;2022-11-20T04:04:22;46.75;;;25.80;;
27003;SDS011;14546;47.590;19.022;2022-11-20T04:06:48;49.85;;;27.10;;
27003;SDS011;14546;47.590;19.022;2022-11-20T04:09:14;49.85;;;27.10;;
27003;SDS011;14546;47.590;19.022;2022-11-20T04:11:40;48.03;;;25.67;;
27003;SDS011;14546;47.590;19.022;2022-11-20T04:14:06;52.85;;;27.67;;
27003;SDS011;14546;47.590;19.022;2022-11-20T04:16:37;50.78;;;26.10;;
27003;SDS011;14546;47.590;19.022;2022-11-20T04:19:05;49.63;;;27.73;;
27003;SDS011;14546;47.590;19.022;2022-11-20T04:21:32;47.13;;;26.33;;
27003;SDS011;14546;47.590;19.022;2022-11-20T04:23:58;48.08;;;26.77;;
27003;SDS011;14546;47.590;19.022;2022-11-20T04:26:25;50.10;;;25.92;;
27003;SDS011;14546;47.590;19.022;2022-11-20T04:28:51;48.55;;;26.15;;
27003;SDS011;14546;47.590;19.022;2022-11-20T04:31:18;42.80;;;24.20;;
27003;SDS011;14546;47.590;19.022;2022-11-20T04:33:46;48.22;;;24.33;;
27003;SDS011;14546;47.590;19.022;2022-11-20T04:36:14;39.15;;;21.75;;
27003;SDS011;14546;47.590;19.022;2022-11-20T04:38:40;45.92;;;25.40;;
27003;SDS011;14546;47.590;19.022;2022-11-20T04:41:07;44.33;;;24.08;;
27003;SDS011;14546;47.590;19.022;2022-11-20T04:43:34;45.63;;;25.15;;
27003;SDS011;14546;47.590;19.022;2022-11-20T04:46:00;42.90;;;25.52;;
27003;SDS011;14546;47.590;19.022;2022-11-20T04:48:27;44.33;;;23.65;;
27003;SDS011;14546;47.590;19.022;2022-11-20T04:50:53;44.05;;;23.20;;
27003;SDS011;14546;47.590;19.022;2022-11-20T04:53:19;41.83;;;21.55;;
27003;SDS011;14546;47.590;19.022;2022-11-20T04:55:45;46.53;;;23.02;;
27003;SDS011;14546;47.590;19.022;2022-11-20T04:58:11;44.03;;;22.45;;
27003;SDS011;14546;47.590;19.022;2022-11-20T05:00:37;46.72;;;23.60;;
27003;SDS011;14546;47.590;19.022;2022-11-20T05:03:03;48.20;;;24.80;;
27003;SDS011;14546;47.590;19.022;2022-11-20T05:05:30;45.53;;;25.23;;
27003;SDS011;14546;47.590;19.022;2022-11-20T05:07:56;43.80;;;23.38;;
27003;SDS011;14546;47.590;19.022;2022-11-20T05:10:23;50.17;;;24.70;;
27003;SDS011;14546;47.590;19.022;2022-11-20T05:12:49;47.08;;;24.23;;
27003;SDS011;14546;47.590;19.022;2022-11-20T05:15:15;47.97;;;25.60;;
27003;SDS011;14546;47.590;19.022;2022-11-20T05:17:41;49.63;;;25.40;;
27003;SDS011;14546;47.590;19.022;2022-11-20T05:20:07;45.30;;;25.35;;
27003;SDS011;14546;47.590;19.022;2022-11-20T05:22:33;47.53;;;24.05;;
27003;SDS011;14546;47.590;19.022;2022-11-20T05:24:59;46.83;;;23.60;;
27003;SDS011;14546;47.590;19.022;2022-11-20T05:27:25;43.28;;;23.83;;
27003;SDS011;14546;47.590;19.022;2022-11-20T05:29:51;47.55;;;23.45;;
27003;SDS011;14546;47.590;19.022;2022-11-20T05:32:17;45.83;;;22.85;;
27003;SDS011;14546;47.590;19.022;2022-11-20T05:34:43;42.90;;;22.25;;
27003;SDS011;14546;47.590;19.022;2022-11-20T05:37:09;39.83;;;21.00;;
27003;SDS011;14546;47.590;19.022;2022-11-20T05:39:35;39.60;;;21.42;;
27003;SDS011;14546;47.590;19.022;2022-11-20T05:42:01;42.53;;;22.02;;
27003;SDS011;14546;47.590;19.022;2022-11-20T05:44:50;40.33;;;21.10;;
27003;SDS011;14546;47.590;19.022;2022-11-20T05:47:16;39.67;;;22.20;;
27003;SDS011;14546;47.590;19.022;2022-11-20T05:49:42;36.72;;;20.15;;
27003;SDS011;14546;47.590;19.022;2022-11-20T05:52:08;40.13;;;22.08;;
27003;SDS011;14546;47.590;19.022;2022-11-20T05:54:34;43.95;;;23.00;;
27003;SDS011;14546;47.590;19.022;2022-11-20T05:57:00;44.03;;;22.30;;
27003;SDS011;14546;47.590;19.022;2022-11-20T05:59:26;45.13;;;23.23;;
27003;SDS011;14546;47.590;19.022;2022-11-20T06:01:52;42.63;;;22.55;;
27003;SDS011;14546;47.590;19.022;2022-11-20T06:04:18;47.47;;;22.40;;
27003;SDS011;14546;47.590;19.022;2022-11-20T06:06:44;44.65;;;23.17;;
27003;SDS011;14546;47.590;19.022;2022-11-20T06:09:10;42.05;;;21.20;;
27003;SDS011;14546;47.590;19.022;2022-11-20T06:11:36;42.97;;;22.55;;
27003;SDS011;14546;47.590;19.022;2022-11-20T06:14:02;41.55;;;22.00;;
27003;SDS011;14546;47.590;19.022;2022-11-20T06:16:28;44.05;;;24.15;;
27003;SDS011;14546;47.590;19.022;2022-11-20T06:18:53;40.08;;;21.92;;
27003;SDS011;14546;47.590;19.022;2022-11-20T06:21:21;37.22;;;20.40;;
27003;SDS011;14546;47.590;19.022;2022-11-20T06:23:47;42.42;;;21.95;;
27003;SDS011;14546;47.590;19.022;2022-11-20T06:26:15;42.50;;;22.33;;
27003;SDS011;14546;47.590;19.022;2022-11-20T06:28:41;39.35;;;21.40;;
27003;SDS011;14546;47.590;19.022;2022-11-20T06:31:07;41.55;;;22.92;;
27003;SDS011;14546;47.590;19.022;2022-11-20T06:33:33;41.25;;;21.45;;
27003;SDS011;14546;47.590;19.022;2022-11-20T06:36:00;39.20;;;22.08;;
27003;SDS011;14546;47.590;19.022;2022-11-20T06:38:26;42.20;;;21.95;;
27003;SDS011;14546;47.590;19.022;2022-11-20T06:40:53;44.70;;;23.00;;
27003;SDS011;14546;47.590;19.022;2022-11-20T06:43:19;46.20;;;23.92;;
27003;SDS011;14546;47.590;19.022;2022-11-20T06:45:45;46.10;;;24.45;;
27003;SDS011;14546;47.590;19.022;2022-11-20T06:48:11;47.70;;;24.17;;
27003;SDS011;14546;47.590;19.022;2022-11-20T06:50:37;41.17;;;23.48;;
27003;SDS011;14546;47.590;19.022;2022-11-20T06:53:04;41.83;;;22.80;;
27003;SDS011;14546;47.590;19.022;2022-11-20T06:55:30;40.33;;;21.42;;
27003;SDS011;14546;47.590;19.022;2022-11-20T06:57:57;40.42;;;21.88;;
27003;SDS011;14546;47.590;19.022;2022-11-20T07:00:23;43.03;;;23.25;;
27003;SDS011;14546;47.590;19.022;2022-11-20T07:02:49;48.72;;;25.27;;
27003;SDS011;14546;47.590;19.022;2022-11-20T07:05:15;45.65;;;23.30;;
27003;SDS011;14546;47.590;19.022;2022-11-20T07:07:41;43.20;;;22.30;;
27003;SDS011;14546;47.590;19.022;2022-11-20T07:10:07;44.88;;;23.50;;
27003;SDS011;14546;47.590;19.022;2022-11-20T07:12:34;44.58;;;23.05;;
27003;SDS011;14546;47.590;19.022;2022-11-20T07:15:00;44.00;;;23.05;;
27003;SDS011;14546;47.590;19.022;2022-11-20T07:17:26;43.25;;;23.25;;
27003;SDS011;14546;47.590;19.022;2022-11-20T07:19:51;37.10;;;20.65;;
27003;SDS011;14546;47.590;19.022;2022-11-20T07:22:17;35.88;;;20.83;;
27003;SDS011;14546;47.590;19.022;2022-11-20T07:24:46;41.65;;;21.88;;
27003;SDS011;14546;47.590;19.022;2022-11-20T07:27:12;40.38;;;20.90;;
27003;SDS011;14546;47.590;19.022;2022-11-20T07:29:38;34.40;;;17.63;;
27003;SDS011;14546;47.590;19.022;2022-11-20T07:32:04;35.13;;;19.50;;
27003;SDS011;14546;47.590;19.022;2022-11-20T07:34:30;37.33;;;20.92;;
27003;SDS011;14546;47.590;19.022;2022-11-20T07:36:56;40.95;;;20.10;;
27003;SDS011;14546;47.590;19.022;2022-11-20T07:39:22;35.80;;;20.05;;
27003;SDS011;14546;47.590;19.022;2022-11-20T07:41:48;37.50;;;19.55;;
27003;SDS011;14546;47.590;19.022;2022-11-20T07:44:14;35.13;;;20.42;;
27003;SDS011;14546;47.590;19.022;2022-11-20T07:46:40;37.10;;;21.27;;
27003;SDS011;14546;47.590;19.022;2022-11-20T07:49:06;37.78;;;20.58;;
27003;SDS011;14546;47.590;19.022;2022-11-20T07:51:32;39.45;;;22.08;;
27003;SDS011;14546;47.590;19.022;2022-11-20T07:53:58;39.05;;;21.50;;
27003;SDS011;14546;47.590;19.022;2022-11-20T07:56:24;38.42;;;21.55;;
27003;SDS011;14546;47.590;19.022;2022-11-20T07:58:50;36.75;;;20.98;;
27003;SDS011;14546;47.590;19.022;2022-11-20T08:01:16;35.97;;;21.42;;
27003;SDS011;14546;47.590;19.022;2022-11-20T08:03:42;36.50;;;21.15;;
27003;SDS011;14546;47.590;19.022;2022-11-20T08:06:08;34.63;;;21.15;;
27003;SDS011;14546;47.590;19.022;2022-11-20T08:08:34;35.72;;;20.02;;
27003;SDS011;14546;47.590;19.022;2022-11-20T08:11:00;38.03;;;20.95;;
27003;SDS011;14546;47.590;19.022;2022-11-20T08:13:44;34.08;;;19.67;;
27003;SDS011;14546;47.590;19.022;2022-11-20T08:16:29;36.13;;;20.05;;
27003;SDS011;14546;47.590;19.022;2022-11-20T08:18:55;34.50;;;20.27;;
27003;SDS011;14546;47.590;19.022;2022-11-20T08:21:21;39.58;;;22.33;;
27003;SDS011;14546;47.590;19.022;2022-11-20T08:23:47;42.28;;;24.67;;
27003;SDS011;14546;47.590;19.022;2022-11-20T08:26:13;48.03;;;26.02;;
27003;SDS011;14546;47.590;19.022;2022-11-20T08:28:39;54.97;;;29.48;;
27003;SDS011;14546;47.590;19.022;2022-11-20T08:31:05;54.75;;;29.40;;
27003;SDS011;14546;47.590;19.022;2022-11-20T08:33:31;41.83;;;24.25;;
27003;SDS011;14546;47.590;19.022;2022-11-20T08:36:01;43.30;;;25.35;;
27003;SDS011;14546;47.590;19.022;2022-11-20T08:38:28;47.85;;;25.58;;
27003;SDS011;14546;47.590;19.022;2022-11-20T08:40:57;41.35;;;25.05;;
27003;SDS011;14546;47.590;19.022;2022-11-20T08:43:42;47.60;;;26.60;;
27003;SDS011;14546;47.590;19.022;2022-11-20T08:46:08;44.30;;;24.33;;
27003;SDS011;14546;47.590;19.022;2022-11-20T08:48:34;47.88;;;26.23;;
27003;SDS011;14546;47.590;19.022;2022-11-20T08:51:00;49.83;;;27.65;;
27003;SDS011;14546;47.590;19.022;2022-11-20T08:53:26;48.35;;;27.30;;
27003;SDS011;14546;47.590;19.022;2022-11-20T08:55:52;45.25;;;25.85;;
27003;SDS011;14546;47.590;19.022;2022-11-20T08:58:19;40.08;;;24.42;;
27003;SDS011;14546;47.590;19.022;2022-11-20T09:00:45;36.08;;;21.42;;
27003;SDS011;14546;47.590;19.022;2022-11-20T09:03:11;36.03;;;20.13;;
27003;SDS011;14546;47.590;19.022;2022-11-20T09:05:38;35.30;;;20.98;;
27003;SDS011;14546;47.590;19.022;2022-11-20T09:08:04;34.60;;;20.88;;
27003;SDS011;14546;47.590;19.022;2022-11-20T09:10:30;33.30;;;21.30;;
27003;SDS011;14546;47.590;19.022;2022-11-20T09:12:57;41.00;;;20.67;;
27003;SDS011;14546;47.590;19.022;2022-11-20T09:15:24;37.75;;;21.85;;
27003;SDS011;14546;47.590;19.022;2022-11-20T09:17:54;34.30;;;19.70;;
27003;SDS011;14546;47.590;19.022;2022-11-20T09:20:20;34.38;;;20.70;;
27003;SDS011;14546;47.590;19.022;2022-11-20T09:22:47;34.00;;;20.23;;
27003;SDS011;14546;47.590;19.022;2022-11-20T09:25:13;37.95;;;20.58;;
27003;SDS011;14546;47.590;19.022;2022-11-20T09:27:39;36.35;;;21.58;;
27003;SDS011;14546;47.590;19.022;2022-11-20T09:30:09;34.90;;;20.27;;
27003;SDS011;14546;47.590;19.022;2022-11-20T09:32:35;33.63;;;19.00;;
27003;SDS011;14546;47.590;19.022;2022-11-20T09:35:01;35.22;;;19.13;;
27003;SDS011;14546;47.590;19.022;2022-11-20T09:37:27;40.35;;;21.75;;
27003;SDS011;14546;47.590;19.022;2022-11-20T09:39:53;41.15;;;21.63;;
27003;SDS011;14546;47.590;19.022;2022-11-20T09:50:31;38.15;;;20.02;;
27003;SDS011;14546;47.590;19.022;2022-11-20T09:53:16;35.92;;;20.60;;
27003;SDS011;14546;47.590;19.022;2022-11-20T09:55:46;32.80;;;19.58;;
27003;SDS011;14546;47.590;19.022;2022-11-20T09:58:25;35.30;;;20.77;;
27003;SDS011;14546;47.590;19.022;2022-11-20T10:00:56;40.92;;;22.23;;
27003;SDS011;14546;47.590;19.022;2022-11-20T10:03:29;41.22;;;23.20;;
27003;SDS011;14546;47.590;19.022;2022-11-20T10:06:00;45.78;;;25.35;;
27003;SDS011;14546;47.590;19.022;2022-11-20T10:11:10;45.92;;;26.05;;
27003;SDS011;14546;47.590;19.022;2022-11-20T10:13:46;42.65;;;23.85;;
27003;SDS011;14546;47.590;19.022;2022-11-20T10:21:34;43.35;;;24.98;;
27003;SDS011;14546;47.590;19.022;2022-11-20T10:29:17;37.78;;;22.13;;
27003;SDS011;14546;47.590;19.022;2022-11-20T10:31:52;34.60;;;20.00;;
27003;SDS011;14546;47.590;19.022;2022-11-20T10:34:28;36.88;;;20.67;;
27003;SDS011;14546;47.590;19.022;2022-11-20T10:41:49;35.33;;;22.15;;
27003;SDS011;14546;47.590;19.022;2022-11-20T10:44:17;29.67;;;19.25;;
27003;SDS011;14546;47.590;19.022;2022-11-20T10:47:05;33.83;;;20.60;;
27003;SDS011;14546;47.590;19.022;2022-11-20T10:49:34;36.45;;;22.08;;
27003;SDS011;14546;47.590;19.022;2022-11-20T10:52:19;32.53;;;20.85;;
27003;SDS011;14546;47.590;19.022;2022-11-20T11:02:23;32.20;;;19.88;;
27003;SDS011;14546;47.590;19.022;2022-11-20T11:04:50;39.10;;;21.60;;
27003;SDS011;14546;47.590;19.022;2022-11-20T11:07:24;33.00;;;20.42;;
27003;SDS011;14546;47.590;19.022;2022-11-20T11:09:54;33.92;;;20.17;;
27003;SDS011;14546;47.590;19.022;2022-11-20T11:12:21;41.22;;;22.08;;
27003;SDS011;14546;47.590;19.022;2022-11-20T11:14:51;33.75;;;22.08;;
27003;SDS011;14546;47.590;19.022;2022-11-20T11:19:56;33.30;;;21.83;;
27003;SDS011;14546;47.590;19.022;2022-11-20T11:22:22;39.35;;;23.55;;
27003;SDS011;14546;47.590;19.022;2022-11-20T11:24:52;33.05;;;22.50;;
27003;SDS011;14546;47.590;19.022;2022-11-20T11:27:18;35.83;;;21.73;;
27003;SDS011;14546;47.590;19.022;2022-11-20T11:29:47;34.13;;;20.88;;
27003;SDS011;14546;47.590;19.022;2022-11-20T11:32:15;37.88;;;23.70;;
27003;SDS011;14546;47.590;19.022;2022-11-20T11:34:41;39.67;;;25.20;;
27003;SDS011;14546;47.590;19.022;2022-11-20T11:37:12;39.97;;;24.80;;
27003;SDS011;14546;47.590;19.022;2022-11-20T11:39:38;44.72;;;27.13;;
27003;SDS011;14546;47.590;19.022;2022-11-20T11:42:07;43.90;;;26.20;;
27003;SDS011;14546;47.590;19.022;2022-11-20T11:44:36;44.10;;;26.65;;
27003;SDS011;14546;47.590;19.022;2022-11-20T11:47:23;41.78;;;24.67;;
27003;SDS011;14546;47.590;19.022;2022-11-20T11:49:59;42.95;;;25.10;;
27003;SDS011;14546;47.590;19.022;2022-11-20T11:52:25;47.97;;;26.00;;
27003;SDS011;14546;47.590;19.022;2022-11-20T11:54:55;47.10;;;27.48;;
27003;SDS011;14546;47.590;19.022;2022-11-20T12:02:37;40.50;;;26.20;;
27003;SDS011;14546;47.590;19.022;2022-11-20T12:15:42;41.38;;;26.25;;
27003;SDS011;14546;47.590;19.022;2022-11-20T12:18:13;45.88;;;27.60;;
27003;SDS011;14546;47.590;19.022;2022-11-20T12:20:41;48.83;;;29.27;;
27003;SDS011;14546;47.590;19.022;2022-11-20T12:23:14;45.40;;;27.63;;
27003;SDS011;14546;47.590;19.022;2022-11-20T12:25:42;46.17;;;29.30;;
27003;SDS011;14546;47.590;19.022;2022-11-20T12:30:47;46.40;;;28.60;;
27003;SDS011;14546;47.590;19.022;2022-11-20T12:33:27;42.63;;;26.65;;
27003;SDS011;14546;47.590;19.022;2022-11-20T12:41:39;45.00;;;28.45;;
27003;SDS011;14546;47.590;19.022;2022-11-20T12:57:54;46.50;;;27.73;;
27003;SDS011;14546;47.590;19.022;2022-11-20T13:00:23;45.05;;;27.48;;
27003;SDS011;14546;47.590;19.022;2022-11-20T13:05:24;46.38;;;27.63;;
27003;SDS011;14546;47.590;19.022;2022-11-20T13:07:53;47.67;;;29.73;;
27003;SDS011;14546;47.590;19.022;2022-11-20T13:13:07;45.85;;;26.60;;
27003;SDS011;14546;47.590;19.022;2022-11-20T13:15:59;45.55;;;26.67;;
27003;SDS011;14546;47.590;19.022;2022-11-20T13:18:26;42.17;;;24.10;;
27003;SDS011;14546;47.590;19.022;2022-11-20T13:20:53;40.85;;;25.30;;
27003;SDS011;14546;47.590;19.022;2022-11-20T13:23:25;40.47;;;25.15;;
27003;SDS011;14546;47.590;19.022;2022-11-20T13:26:15;41.33;;;25.17;;
27003;SDS011;14546;47.590;19.022;2022-11-20T13:28:38;41.00;;;24.48;;
27003;SDS011;14546;47.590;19.022;2022-11-20T13:31:09;39.88;;;24.15;;
27003;SDS011;14546;47.590;19.022;2022-11-20T13:33:49;41.53;;;25.25;;
27003;SDS011;14546;47.590;19.022;2022-11-20T13:36:21;43.55;;;26.45;;
27003;SDS011;14546;47.590;19.022;2022-11-20T13:38:48;42.15;;;26.63;;
27003;SDS011;14546;47.590;19.022;2022-11-20T13:43:54;38.92;;;24.23;;
27003;SDS011;14546;47.590;19.022;2022-11-20T13:46:20;42.05;;;25.55;;
27003;SDS011;14546;47.590;19.022;2022-11-20T13:48:49;40.15;;;25.55;;
27003;SDS011;14546;47.590;19.022;2022-11-20T13:54:07;43.00;;;26.13;;
27003;SDS011;14546;47.590;19.022;2022-11-20T14:01:51;41.42;;;25.25;;
27003;SDS011;14546;47.590;19.022;2022-11-20T14:04:18;40.97;;;24.65;;
27003;SDS011;14546;47.590;19.022;2022-11-20T14:06:45;44.60;;;25.98;;
27003;SDS011;14546;47.590;19.022;2022-11-20T14:09:13;45.55;;;27.20;;
27003;SDS011;14546;47.590;19.022;2022-11-20T14:11:49;49.83;;;27.42;;
27003;SDS011;14546;47.590;19.022;2022-11-20T14:14:17;45.88;;;28.30;;
27003;SDS011;14546;47.590;19.022;2022-11-20T14:16:44;43.83;;;25.65;;
27003;SDS011;14546;47.590;19.022;2022-11-20T14:21:45;44.20;;;25.80;;
27003;SDS011;14546;47.590;19.022;2022-11-20T14:24:12;43.00;;;26.08;;
27003;SDS011;14546;47.590;19.022;2022-11-20T14:26:45;44.13;;;26.90;;
27003;SDS011;14546;47.590;19.022;2022-11-20T14:29:14;43.28;;;25.58;;
27003;SDS011;14546;47.590;19.022;2022-11-20T14:31:41;42.53;;;25.15;;
27003;SDS011;14546;47.590;19.022;2022-11-20T14:34:18;39.03;;;24.33;;
27003;SDS011;14546;47.590;19.022;2022-11-20T14:36:44;41.70;;;25.38;;
27003;SDS011;14546;47.590;19.022;2022-11-20T14:39:11;44.92;;;25.75;;
27003;SDS011;14546;47.590;19.022;2022-11-20T14:41:37;43.05;;;25.67;;
27003;SDS011;14546;47.590;19.022;2022-11-20T14:44:03;47.30;;;26.10;;
27003;SDS011;14546;47.590;19.022;2022-11-20T14:46:30;49.00;;;26.27;;
27003;SDS011;14546;47.590;19.022;2022-11-20T14:48:57;50.40;;;27.60;;
27003;SDS011;14546;47.590;19.022;2022-11-20T14:51:31;45.22;;;26.85;;
27003;SDS011;14546;47.590;19.022;2022-11-20T14:54:30;47.92;;;27.48;;
27003;SDS011;14546;47.590;19.022;2022-11-20T14:56:54;44.35;;;25.63;;
27003;SDS011;14546;47.590;19.022;2022-11-20T14:59:24;48.42;;;28.10;;
27003;SDS011;14546;47.590;19.022;2022-11-20T15:01:57;51.22;;;28.42;;
27003;SDS011;14546;47.590;19.022;2022-11-20T15:04:23;48.45;;;27.48;;
27003;SDS011;14546;47.590;19.022;2022-11-20T15:06:50;50.00;;;28.75;;
27003;SDS011;14546;47.590;19.022;2022-11-20T15:09:16;47.00;;;27.45;;
27003;SDS011;14546;47.590;19.022;2022-11-20T15:11:52;49.70;;;28.73;;
27003;SDS011;14546;47.590;19.022;2022-11-20T15:14:18;52.92;;;29.08;;
27003;SDS011;14546;47.590;19.022;2022-11-20T15:16:44;56.90;;;31.60;;
27003;SDS011;14546;47.590;19.022;2022-11-20T15:19:15;52.35;;;30.60;;
27003;SDS011;14546;47.590;19.022;2022-11-20T15:21:42;55.85;;;30.83;;
27003;SDS011;14546;47.590;19.022;2022-11-20T15:24:08;55.88;;;30.33;;
27003;SDS011;14546;47.590;19.022;2022-11-20T15:26:34;56.38;;;30.08;;
27003;SDS011;14546;47.590;19.022;2022-11-20T15:29:02;56.70;;;32.35;;
27003;SDS011;14546;47.590;19.022;2022-11-20T15:31:28;64.13;;;33.78;;
27003;SDS011;14546;47.590;19.022;2022-11-20T15:33:54;60.28;;;33.85;;
27003;SDS011;14546;47.590;19.022;2022-11-20T15:36:20;56.50;;;32.60;;
27003;SDS011;14546;47.590;19.022;2022-11-20T15:38:46;55.83;;;31.35;;
27003;SDS011;14546;47.590;19.022;2022-11-20T15:41:13;61.20;;;33.13;;
27003;SDS011;14546;47.590;19.022;2022-11-20T15:43:39;63.88;;;34.42;;
27003;SDS011;14546;47.590;19.022;2022-11-20T15:46:06;58.33;;;32.85;;
27003;SDS011;14546;47.590;19.022;2022-11-20T15:48:35;64.75;;;34.17;;
27003;SDS011;14546;47.590;19.022;2022-11-20T15:51:03;63.80;;;34.10;;
27003;SDS011;14546;47.590;19.022;2022-11-20T15:53:32;62.63;;;33.95;;
27003;SDS011;14546;47.590;19.022;2022-11-20T15:55:58;63.03;;;33.75;;
27003;SDS011;14546;47.590;19.022;2022-11-20T15:58:24;60.00;;;33.90;;